createdAt,value
2023-05-15T00:29:00.517Z,83.06
2023-05-15T00:43:52.257Z,83.14
2023-05-15T00:58:43.946Z,82.67
2023-05-15T01:13:36.023Z,82.02
2023-05-15T01:28:30.426Z,82.42
2023-05-15T01:43:25.020Z,81.81
2023-05-15T01:58:16.283Z,82.22
2023-05-15T02:13:07.791Z,82.17
2023-05-15T02:27:57.913Z,82.20
2023-05-15T02:42:49.646Z,82.92
2023-05-15T02:57:41.460Z,83.82
2023-05-15T03:12:32.735Z,84.60
2023-05-15T03:27:24.243Z,85.29
2023-05-15T03:42:19.070Z,85.64
2023-05-15T03:57:09.452Z,85.84
2023-05-15T04:12:01.979Z,85.93
2023-05-15T04:26:54.154Z,86.02
2023-05-15T04:41:46.003Z,86.12
2023-05-15T04:56:37.548Z,86.47
2023-05-15T05:11:29.706Z,86.98
2023-05-15T05:26:21.458Z,87.19
2023-05-15T05:41:14.456Z,86.36
2023-05-15T05:56:07.789Z,84.06
2023-05-15T06:11:01.170Z,81.95
2023-05-15T06:25:52.888Z,80.88
2023-05-15T06:40:44.366Z,80.49
2023-05-15T06:55:37.122Z,79.35
2023-05-15T07:10:29.718Z,79.65
2023-05-15T07:40:16.021Z,76.91
2023-05-15T08:24:56.425Z,69.27
2023-05-15T08:54:44.947Z,65.87
2023-05-15T09:39:28.401Z,61.56
2023-05-15T09:54:21.499Z,57.62
2023-05-15T10:09:14.872Z,55.97
2023-05-15T10:24:07.429Z,54.80
2023-05-15T10:39:01.365Z,50.83
2023-05-15T10:53:54.887Z,51.92
2023-05-15T11:08:50.062Z,46.09
2023-05-15T11:23:42.236Z,48.19
2023-05-15T11:38:33.046Z,49.24
2023-05-15T11:53:25.470Z,52.81
2023-05-15T12:08:19.228Z,63.16
2023-05-15T12:23:10.543Z,66.79
2023-05-15T12:38:04.732Z,59.51
2023-05-15T12:53:02.579Z,50.73
2023-05-15T13:08:02.095Z,45.44
2023-05-15T13:22:58.685Z,45.99
2023-05-15T13:37:51.850Z,47.83
2023-05-15T13:52:41.748Z,46.29
2023-05-15T14:07:26.927Z,80.53
2023-05-15T14:22:18.050Z,79.64
2023-05-15T14:37:09.461Z,81.35
2023-05-15T14:52:04.739Z,79.44
2023-05-15T15:06:57.051Z,74.62
2023-05-15T15:21:49.037Z,72.41
2023-05-15T15:36:53.620Z,60.17
2023-05-15T15:51:44.114Z,55.00
2023-05-15T16:06:37.888Z,59.35
2023-05-15T16:21:26.583Z,55.94
2023-05-15T16:36:17.829Z,57.32
2023-05-15T16:51:09.169Z,57.81
2023-05-15T17:20:52.362Z,61.65
2023-05-15T17:50:37.848Z,65.31
2023-05-15T18:05:29.358Z,68.30
2023-05-15T18:20:20.039Z,69.98
2023-05-15T18:35:12.234Z,75.03
2023-05-15T19:04:56.411Z,73.19
2023-05-15T19:34:40.865Z,75.94
2023-05-15T20:04:24.782Z,77.90
2023-05-15T20:19:16.672Z,78.88
2023-05-15T20:34:08.968Z,77.63
2023-05-15T20:49:00.714Z,77.75
2023-05-15T21:03:53.570Z,78.44
2023-05-15T21:18:45.703Z,80.09
2023-05-15T21:33:37.877Z,81.71
2023-05-15T21:48:30.108Z,81.33
2023-05-15T22:03:22.118Z,81.09
2023-05-15T22:18:14.769Z,77.84
2023-05-15T22:33:07.388Z,74.62
2023-05-15T22:47:59.112Z,75.16
2023-05-15T23:02:52.011Z,73.75
2023-05-15T23:17:43.088Z,75.92
2023-05-15T23:32:34.856Z,78.60
2023-05-15T23:47:26.158Z,81.49
